createdAt,value
2023-03-24T00:00:31.622Z,98190.69
2023-03-24T00:03:03.389Z,98201.09
2023-03-24T00:05:31.114Z,98195.69
2023-03-24T00:08:02.131Z,98199.41
2023-03-24T00:10:35.066Z,98193.66
2023-03-24T00:13:02.444Z,98207.72
2023-03-24T00:15:29.590Z,98210.22
2023-03-24T00:17:58.516Z,98216.03
2023-03-24T00:20:27.357Z,98220.38
2023-03-24T00:22:59.328Z,98215.19
2023-03-24T00:25:36.686Z,98211.06
2023-03-24T00:28:07.469Z,98208.56
2023-03-24T00:30:35.626Z,98216.47
2023-03-24T00:33:03.318Z,98211.69
2023-03-24T00:35:30.419Z,98208.16
2023-03-24T00:37:57.575Z,98203.63
2023-03-24T00:40:25.299Z,98206.53
2023-03-24T00:42:52.285Z,98204.44
2023-03-24T00:45:23.671Z,98208.16
2023-03-24T00:47:54.653Z,98216.25
2023-03-24T00:50:33.753Z,98210.22
2023-03-24T00:53:02.302Z,98213.53
2023-03-24T00:55:29.416Z,98214.81
2023-03-24T00:57:56.482Z,98215.22
2023-03-24T01:00:26.396Z,98211.06
2023-03-24T01:02:57.231Z,98217.69
2023-03-24T01:05:29.295Z,98217.69
2023-03-24T01:07:59.277Z,98216.25
2023-03-24T01:10:27.255Z,98213.97
2023-03-24T01:12:58.420Z,98223.06
2023-03-24T01:15:29.911Z,98222.03
2023-03-24T01:17:57.967Z,98222.84
2023-03-24T01:20:26.034Z,98222.22
2023-03-24T01:22:53.564Z,98229.91
2023-03-24T01:25:23.525Z,98231.16
2023-03-24T01:27:52.891Z,98233.00
2023-03-24T01:30:24.874Z,98237.75
2023-03-24T01:32:53.522Z,98235.06
2023-03-24T01:35:22.772Z,98245.00
2023-03-24T01:37:50.117Z,98251.63
2023-03-24T01:40:28.323Z,98247.47
2023-03-24T01:42:55.717Z,98249.34
2023-03-24T01:46:19.823Z,98253.06
2023-03-24T01:48:51.203Z,98258.25
2023-03-24T01:51:35.749Z,98258.88
2023-03-24T01:54:07.582Z,98263.44
2023-03-24T01:56:39.401Z,98275.41
2023-03-24T01:59:13.189Z,98269.00
2023-03-24T02:01:40.374Z,98272.72
2023-03-24T02:04:09.261Z,98271.47
2023-03-24T02:06:41.566Z,98282.03
2023-03-24T02:09:10.687Z,98281.41
2023-03-24T02:11:39.548Z,98282.63
2023-03-24T02:14:08.924Z,98286.34
2023-03-24T02:16:52.474Z,98274.16
2023-03-24T02:19:38.801Z,98289.28
2023-03-24T02:22:11.342Z,98284.91
2023-03-24T02:24:59.783Z,98274.16
2023-03-24T02:28:07.754Z,98297.75
2023-03-24T02:30:49.035Z,98297.53
2023-03-24T02:33:55.448Z,98285.72
2023-03-24T02:36:38.024Z,98299.81
2023-03-24T02:39:38.368Z,98300.19
2023-03-24T02:42:29.060Z,98299.19
2023-03-24T02:45:22.854Z,98293.75
2023-03-24T02:48:23.199Z,98285.50
2023-03-24T02:51:02.076Z,98292.94
2023-03-24T02:53:44.460Z,98297.31
2023-03-24T02:56:30.305Z,98297.50
2023-03-24T02:59:04.763Z,98304.56
2023-03-24T03:01:41.577Z,98298.75
2023-03-24T03:04:23.476Z,98300.81
2023-03-24T03:06:57.752Z,98295.00
2023-03-24T03:09:28.214Z,98298.09
2023-03-24T03:11:58.413Z,98309.47
2023-03-24T03:14:49.880Z,98308.84
2023-03-24T03:17:30.910Z,98312.97
2023-03-24T03:20:08.386Z,98308.38
2023-03-24T03:22:49.923Z,98317.72
2023-03-24T03:25:23.401Z,98318.34
2023-03-24T03:27:54.021Z,98329.50
2023-03-24T03:30:40.297Z,98330.50
2023-03-24T03:33:18.470Z,98313.75
2023-03-24T03:36:11.779Z,98318.69
2023-03-24T03:38:48.193Z,98320.13
2023-03-24T03:41:18.608Z,98317.88
2023-03-24T03:43:48.396Z,98317.25
2023-03-24T03:46:17.249Z,98319.28
2023-03-24T03:48:45.744Z,98318.06
2023-03-24T03:51:14.680Z,98326.09
2023-03-24T03:53:58.726Z,98323.00
2023-03-24T03:56:30.136Z,98322.78
2023-03-24T03:58:58.459Z,98312.66
2023-03-24T04:01:30.445Z,98318.03
2023-03-24T04:04:40.497Z,98321.13
2023-03-24T04:07:28.580Z,98322.56
2023-03-24T04:10:57.589Z,98328.78
2023-03-24T04:13:42.947Z,98330.25
2023-03-24T04:16:40.509Z,98330.84
2023-03-24T04:19:35.245Z,98339.53
2023-03-24T04:22:20.115Z,98340.38
2023-03-24T04:25:20.338Z,98344.50
2023-03-24T04:28:01.374Z,98348.28
2023-03-24T04:30:50.871Z,98350.34
2023-03-24T04:33:29.279Z,98358.31
2023-03-24T04:36:29.577Z,98369.63
2023-03-24T04:38:58.212Z,98363.69
2023-03-24T04:41:28.068Z,98364.50
2023-03-24T04:43:58.143Z,98362.44
2023-03-24T04:46:26.274Z,98368.00
2023-03-24T04:48:53.201Z,98374.44
2023-03-24T04:51:21.305Z,98378.97
2023-03-24T04:53:49.156Z,98380.00
2023-03-24T04:56:40.691Z,98380.59
2023-03-24T04:59:07.685Z,98375.88
2023-03-24T05:01:37.726Z,98384.75
2023-03-24T05:04:06.117Z,98384.38
2023-03-24T05:06:33.535Z,98384.38
2023-03-24T05:09:00.537Z,98385.63
2023-03-24T05:11:28.717Z,98384.84
2023-03-24T05:13:55.833Z,98388.56
2023-03-24T05:16:22.798Z,98382.78
2023-03-24T05:18:49.757Z,98390.66
2023-03-24T05:21:16.699Z,98389.00
2023-03-24T05:23:43.642Z,98387.00
2023-03-24T05:26:10.553Z,98386.56
2023-03-24T05:28:37.525Z,98382.84
2023-03-24T05:31:04.534Z,98384.25
2023-03-24T05:33:32.762Z,98394.81
2023-03-24T05:36:00.203Z,98393.53
2023-03-24T05:38:27.217Z,98399.31
2023-03-24T05:41:01.084Z,98405.28
2023-03-24T05:43:28.727Z,98397.63
2023-03-24T05:45:56.532Z,98407.53
2023-03-24T05:48:23.776Z,98403.78
2023-03-24T05:50:53.255Z,98409.16
2023-03-24T05:53:21.095Z,98422.84
2023-03-24T05:55:48.063Z,98431.09
2023-03-24T05:58:16.000Z,98426.16
2023-03-24T06:00:42.901Z,98425.31
2023-03-24T06:03:09.917Z,98424.47
2023-03-24T06:05:37.360Z,98412.09
2023-03-24T06:08:04.591Z,98421.59
2023-03-24T06:10:31.705Z,98411.66
2023-03-24T06:12:58.615Z,98413.59
2023-03-24T06:15:28.262Z,98412.16
2023-03-24T06:17:55.685Z,98412.53
2023-03-24T06:20:22.637Z,98412.34
2023-03-24T06:22:49.992Z,98409.84
2023-03-24T06:25:20.760Z,98426.47
2023-03-24T06:27:47.683Z,98421.09
2023-03-24T06:30:17.923Z,98414.72
2023-03-24T06:32:48.799Z,98408.53
2023-03-24T06:35:17.920Z,98413.75
2023-03-24T06:37:45.588Z,98421.00
2023-03-24T06:40:16.111Z,98416.25
2023-03-24T06:42:43.132Z,98420.25
2023-03-24T06:45:10.739Z,98419.84
2023-03-24T06:47:38.075Z,98410.94
2023-03-24T06:50:07.355Z,98407.44
2023-03-24T06:52:35.813Z,98419.66
2023-03-24T06:55:03.711Z,98408.47
2023-03-24T06:57:31.084Z,98408.09
2023-03-24T06:59:58.095Z,98406.00
2023-03-24T07:02:25.513Z,98402.47
2023-03-24T07:04:54.383Z,98404.34
2023-03-24T07:07:57.046Z,98402.06
2023-03-24T07:10:10.880Z,98402.91
2023-03-24T07:12:37.853Z,98405.41
2023-03-24T07:15:07.488Z,98405.41
2023-03-24T07:17:34.931Z,98408.31
2023-03-24T07:20:02.095Z,98416.81
2023-03-24T07:22:29.078Z,98416.81
2023-03-24T07:24:58.342Z,98416.81
2023-03-24T07:27:25.285Z,98401.91
2023-03-24T07:29:52.229Z,98409.97
2023-03-24T07:32:19.860Z,98418.66
2023-03-24T07:34:47.375Z,98419.03
2023-03-24T07:37:14.299Z,98422.31
2023-03-24T07:39:41.419Z,98416.66
2023-03-24T07:42:09.470Z,98419.34
2023-03-24T07:44:37.910Z,98425.16
2023-03-24T07:47:05.057Z,98430.50
2023-03-24T07:49:32.198Z,98426.50
2023-03-24T07:51:59.406Z,98419.56
2023-03-24T07:54:27.526Z,98429.34
2023-03-24T07:56:54.474Z,98415.16
2023-03-24T07:59:21.836Z,98417.72
2023-03-24T08:03:21.496Z,98429.53
2023-03-24T08:04:37.508Z,98425.19
2023-03-24T08:07:05.609Z,98427.91
2023-03-24T08:09:32.568Z,98425.88
2023-03-24T08:12:06.905Z,98427.59
2023-03-24T08:14:40.674Z,98438.78
2023-03-24T08:17:07.728Z,98448.97
2023-03-24T08:19:35.313Z,98447.91
2023-03-24T08:22:04.403Z,98454.59
2023-03-24T08:24:31.706Z,98462.69
2023-03-24T08:27:03.002Z,98465.19
2023-03-24T08:29:30.301Z,98464.16
2023-03-24T08:31:57.210Z,98468.13
2023-03-24T08:34:25.267Z,98471.66
2023-03-24T08:36:52.219Z,98467.44
2023-03-24T08:39:20.517Z,98463.03
2023-03-24T08:41:47.622Z,98467.97
2023-03-24T08:44:14.528Z,98454.31
2023-03-24T08:46:41.514Z,98460.63
2023-03-24T08:49:09.048Z,98458.59
2023-03-24T08:51:36.076Z,98457.19
2023-03-24T08:54:04.030Z,98450.53
2023-03-24T08:56:31.110Z,98451.63
2023-03-24T08:58:58.210Z,98443.53
2023-03-24T09:01:25.831Z,98452.38
2023-03-24T09:03:53.507Z,98449.72
2023-03-24T09:06:20.624Z,98451.72
2023-03-24T09:08:47.780Z,98458.91
2023-03-24T09:11:21.323Z,98457.56
2023-03-24T09:13:49.107Z,98450.06
2023-03-24T09:16:17.192Z,98455.03
2023-03-24T09:18:44.977Z,98463.28
2023-03-24T09:21:12.405Z,98453.38
2023-03-24T09:23:39.590Z,98451.50
2023-03-24T09:26:07.692Z,98451.25
2023-03-24T09:28:35.023Z,98446.03
2023-03-24T09:31:06.252Z,98458.16
2023-03-24T09:33:37.448Z,98449.41
2023-03-24T09:36:05.401Z,98457.56
2023-03-24T09:38:33.840Z,98465.09
2023-03-24T09:41:03.312Z,98457.28
2023-03-24T09:43:52.974Z,98466.22
2023-03-24T09:46:45.988Z,98463.34
2023-03-24T09:49:24.241Z,98454.19
2023-03-24T09:52:00.660Z,98463.69
2023-03-24T09:54:36.866Z,98465.31
2023-03-24T09:57:05.231Z,98456.72
2023-03-24T09:59:39.344Z,98469.00
2023-03-24T10:02:21.748Z,98441.88
2023-03-24T10:04:50.243Z,98448.81
2023-03-24T10:07:47.203Z,98439.28
2023-03-24T10:10:57.969Z,98450.88
2023-03-24T10:13:37.161Z,98448.16
2023-03-24T10:16:27.284Z,98441.00
2023-03-24T10:19:21.217Z,98449.75
2023-03-24T10:22:13.192Z,98439.63
2023-03-24T10:24:54.937Z,98450.28
2023-03-24T10:27:36.474Z,98440.63
2023-03-24T10:30:17.628Z,98430.50
2023-03-24T10:32:45.660Z,98441.00
2023-03-24T10:35:23.110Z,98430.88
2023-03-24T10:37:52.607Z,98430.28
2023-03-24T10:40:27.345Z,98434.56
2023-03-24T10:43:07.173Z,98430.69
2023-03-24T10:45:45.032Z,98424.13
2023-03-24T10:48:15.050Z,98411.84
2023-03-24T10:50:45.529Z,98414.72
2023-03-24T10:53:19.433Z,98423.94
2023-03-24T10:55:48.293Z,98420.47
2023-03-24T10:58:37.033Z,98448.13
2023-03-24T11:01:23.118Z,98439.88
2023-03-24T11:03:51.335Z,98425.69
2023-03-24T11:06:21.868Z,98431.22
2023-03-24T11:09:11.908Z,98431.22
2023-03-24T11:11:38.891Z,98430.06
2023-03-24T11:14:26.182Z,98407.63
2023-03-24T11:17:10.897Z,98425.50
2023-03-24T11:19:38.181Z,98418.28
2023-03-24T11:22:07.633Z,98422.50
2023-03-24T11:24:38.797Z,98416.81
2023-03-24T11:27:06.315Z,98416.53
2023-03-24T11:29:39.045Z,98435.28
2023-03-24T11:32:15.174Z,98427.72
2023-03-24T11:34:49.196Z,98414.22
2023-03-24T11:37:24.106Z,98418.75
2023-03-24T11:40:26.086Z,98424.63
2023-03-24T11:43:00.593Z,98416.63
2023-03-24T11:45:41.248Z,98427.16
2023-03-24T11:48:41.987Z,98426.09
2023-03-24T11:51:12.958Z,98426.72
2023-03-24T11:53:48.777Z,98429.31
2023-03-24T11:56:46.156Z,98421.16
2023-03-24T11:59:31.725Z,98416.66
2023-03-24T12:02:25.697Z,98412.44
2023-03-24T12:05:17.156Z,98424.03
2023-03-24T12:08:04.931Z,98442.09
2023-03-24T12:11:04.295Z,98486.78
2023-03-24T12:13:37.770Z,98488.56
2023-03-24T12:16:40.123Z,98486.31
2023-03-24T12:19:39.933Z,98468.47
2023-03-24T12:22:43.764Z,98453.16
2023-03-24T12:25:46.238Z,98455.44
2023-03-24T12:28:51.734Z,98444.84
2023-03-24T12:31:57.339Z,98432.88
2023-03-24T12:35:24.379Z,98422.28
2023-03-24T12:38:17.383Z,98420.78
2023-03-24T12:41:04.380Z,98416.28
2023-03-24T12:43:57.303Z,98408.53
2023-03-24T12:46:26.302Z,98404.09
2023-03-24T12:49:00.154Z,98405.38
2023-03-24T12:52:05.586Z,98407.53
2023-03-24T12:55:06.476Z,98397.00
2023-03-24T12:58:05.291Z,98411.50
2023-03-24T13:00:38.566Z,98388.84
2023-03-24T13:03:15.088Z,98395.47
2023-03-24T13:05:51.667Z,98376.94
2023-03-24T13:08:32.540Z,98390.19
2023-03-24T13:11:19.282Z,98386.19
2023-03-24T13:13:53.886Z,98373.06
2023-03-24T13:16:25.130Z,98378.13
2023-03-24T13:19:00.098Z,98377.06
2023-03-24T13:21:29.777Z,98377.19
2023-03-24T13:24:14.303Z,98380.25
2023-03-24T13:26:51.468Z,98400.06
2023-03-24T13:29:48.991Z,98404.75
2023-03-24T13:32:24.251Z,98405.78
2023-03-24T13:35:44.326Z,98400.97
2023-03-24T13:38:39.695Z,98390.38
2023-03-24T13:41:12.702Z,98384.84
2023-03-24T13:43:51.938Z,98386.97
2023-03-24T13:46:19.243Z,98384.47
2023-03-24T13:48:52.543Z,98377.91
2023-03-24T13:51:27.168Z,98368.91
2023-03-24T13:54:18.776Z,98370.75
2023-03-24T13:56:54.523Z,98346.13
2023-03-24T14:00:12.288Z,98360.72
2023-03-24T14:02:50.510Z,98362.97
2023-03-24T14:05:24.357Z,98362.44
2023-03-24T14:08:10.497Z,98368.41
2023-03-24T14:10:44.365Z,98361.88
2023-03-24T14:13:14.253Z,98356.84
2023-03-24T14:15:45.125Z,98374.47
2023-03-24T14:18:25.213Z,98367.28
2023-03-24T14:20:58.807Z,98355.91
2023-03-24T14:23:49.505Z,98350.13
2023-03-24T14:26:37.225Z,98350.91
2023-03-24T14:29:04.820Z,98355.59
2023-03-24T14:31:34.752Z,98348.78
2023-03-24T14:34:21.394Z,98346.97
2023-03-24T14:37:00.327Z,98343.84
2023-03-24T14:39:47.445Z,98339.84
2023-03-24T14:42:35.726Z,98328.50
2023-03-24T14:45:07.299Z,98325.84
2023-03-24T14:47:41.337Z,98313.94
2023-03-24T14:50:29.935Z,98328.19
2023-03-24T14:53:44.128Z,98328.56
2023-03-24T14:56:16.897Z,98322.09
2023-03-24T14:58:51.798Z,98326.13
2023-03-24T15:01:18.848Z,98323.81
2023-03-24T15:04:21.985Z,98325.03
2023-03-24T15:06:49.501Z,98325.84
2023-03-24T15:09:18.605Z,98306.25
2023-03-24T15:11:48.633Z,98305.44
2023-03-24T15:14:26.302Z,98315.50
2023-03-24T15:16:58.376Z,98303.28
2023-03-24T15:19:28.842Z,98307.81
2023-03-24T15:22:06.608Z,98295.13
2023-03-24T15:24:37.622Z,98296.13
2023-03-24T15:27:04.461Z,98290.69
2023-03-24T15:29:31.782Z,98292.28
2023-03-24T15:31:58.840Z,98291.50
2023-03-24T15:34:43.234Z,98290.44
2023-03-24T15:37:24.197Z,98281.19
2023-03-24T15:40:01.841Z,98276.00
2023-03-24T15:42:33.616Z,98285.00
2023-03-24T15:45:34.674Z,98279.72
2023-03-24T15:48:13.724Z,98285.69
2023-03-24T15:50:55.652Z,98274.94
2023-03-24T15:53:30.428Z,98267.03
2023-03-24T15:56:06.647Z,98263.00
2023-03-24T15:58:47.093Z,98263.56
2023-03-24T16:01:19.259Z,98272.13
2023-03-24T16:03:48.658Z,98282.56
2023-03-24T16:06:26.739Z,98289.81
2023-03-24T16:08:53.810Z,98291.91
2023-03-24T16:11:21.896Z,98292.88
2023-03-24T16:13:48.785Z,98296.00
2023-03-24T16:16:16.153Z,98288.34
2023-03-24T16:18:49.024Z,98280.53
2023-03-24T16:21:22.296Z,98285.50
2023-03-24T16:23:51.948Z,98281.38
2023-03-24T16:26:24.144Z,98288.34
2023-03-24T16:28:53.100Z,98296.97
2023-03-24T16:31:31.075Z,98305.81
2023-03-24T16:33:58.556Z,98295.91
2023-03-24T16:36:29.168Z,98297.31
2023-03-24T16:38:58.925Z,98310.34
2023-03-24T16:41:26.333Z,98310.22
2023-03-24T16:43:54.224Z,98323.78
2023-03-24T16:46:34.053Z,98317.28
2023-03-24T16:49:03.971Z,98310.94
2023-03-24T16:51:31.063Z,98319.88
2023-03-24T16:53:58.538Z,98320.47
2023-03-24T16:56:26.701Z,98319.88
2023-03-24T16:58:54.791Z,98321.53
2023-03-24T17:01:39.552Z,98318.84
2023-03-24T17:04:16.548Z,98321.97
2023-03-24T17:06:53.037Z,98324.09
2023-03-24T17:09:21.079Z,98325.47
2023-03-24T17:11:53.234Z,98328.91
2023-03-24T17:14:20.309Z,98316.22
2023-03-24T17:16:49.641Z,98306.22
2023-03-24T17:19:20.379Z,98310.44
2023-03-24T17:22:07.134Z,98310.94
2023-03-24T17:24:36.880Z,98325.59
2023-03-24T17:27:06.498Z,98318.97
2023-03-24T17:29:33.445Z,98322.19
2023-03-24T17:32:00.793Z,98322.75
2023-03-24T17:34:28.731Z,98312.06
2023-03-24T17:36:56.682Z,98308.31
2023-03-24T17:39:24.542Z,98306.22
2023-03-24T17:41:52.366Z,98303.53
2023-03-24T17:44:19.588Z,98301.09
2023-03-24T17:46:46.847Z,98311.91
2023-03-24T17:49:13.985Z,98308.59
2023-03-24T17:51:41.611Z,98305.78
2023-03-24T17:54:12.154Z,98316.00
2023-03-24T17:56:40.163Z,98306.72
2023-03-24T17:59:07.628Z,98315.59
2023-03-24T18:01:35.467Z,98324.84
2023-03-24T18:04:02.593Z,98320.91
2023-03-24T18:06:31.017Z,98321.81
2023-03-24T18:08:58.222Z,98330.13
2023-03-24T18:11:26.123Z,98335.31
2023-03-24T18:13:53.078Z,98340.53
2023-03-24T18:16:21.792Z,98340.69
2023-03-24T18:18:51.496Z,98329.47
2023-03-24T18:21:19.575Z,98340.13
2023-03-24T18:23:47.270Z,98329.31
2023-03-24T18:26:15.570Z,98321.50
2023-03-24T18:28:44.252Z,98317.72
2023-03-24T18:31:19.061Z,98323.00
2023-03-24T18:33:51.321Z,98320.06
2023-03-24T18:36:21.722Z,98325.34
2023-03-24T18:38:49.777Z,98323.25
2023-03-24T18:41:18.828Z,98324.97
2023-03-24T18:43:48.486Z,98332.91
2023-03-24T18:46:16.870Z,98323.59
2023-03-24T18:48:44.489Z,98314.69
2023-03-24T18:51:12.408Z,98315.19
2023-03-24T18:53:40.239Z,98313.56
2023-03-24T18:56:08.864Z,98316.69
2023-03-24T18:58:38.679Z,98310.25
2023-03-24T19:01:13.119Z,98312.56
2023-03-24T19:03:44.680Z,98312.56
2023-03-24T19:06:15.301Z,98315.25
2023-03-24T19:08:46.959Z,98319.00
2023-03-24T19:11:16.382Z,98323.56
2023-03-24T19:13:50.400Z,98315.88
2023-03-24T19:16:20.292Z,98318.75
2023-03-24T19:18:48.924Z,98325.16
2023-03-24T19:21:17.689Z,98321.38
2023-03-24T19:23:47.281Z,98327.84
2023-03-24T19:26:16.753Z,98319.13
2023-03-24T19:28:44.850Z,98333.06
2023-03-24T19:31:18.105Z,98326.78
2023-03-24T19:33:47.662Z,98319.13
2023-03-24T19:36:16.789Z,98324.09
2023-03-24T19:38:45.000Z,98328.28
2023-03-24T19:41:15.667Z,98327.47
2023-03-24T19:43:43.525Z,98324.97
2023-03-24T19:46:11.394Z,98336.19
2023-03-24T19:48:38.978Z,98323.91
2023-03-24T19:51:06.738Z,98320.78
2023-03-24T19:53:34.328Z,98325.50
2023-03-24T19:56:02.586Z,98329.69
2023-03-24T19:58:30.220Z,98330.47
2023-03-24T20:00:58.140Z,98330.47
2023-03-24T20:03:26.262Z,98327.19
2023-03-24T20:05:53.989Z,98320.06
2023-03-24T20:08:24.545Z,98333.41
2023-03-24T20:10:52.804Z,98331.75
2023-03-24T20:13:20.497Z,98333.41
2023-03-24T20:15:48.803Z,98323.44
2023-03-24T20:18:16.937Z,98339.69
2023-03-24T20:20:44.175Z,98339.88
2023-03-24T20:23:11.585Z,98352.00
2023-03-24T20:25:42.633Z,98349.88
2023-03-24T20:28:09.739Z,98348.88
2023-03-24T20:30:36.648Z,98363.50
2023-03-24T20:33:03.728Z,98365.59
2023-03-24T20:35:30.769Z,98365.59
2023-03-24T20:37:57.961Z,98362.06
2023-03-24T20:40:25.899Z,98372.69
2023-03-24T20:42:52.850Z,98372.91
2023-03-24T20:45:20.112Z,98379.72
2023-03-24T20:47:47.621Z,98366.47
2023-03-24T20:50:14.711Z,98368.97
2023-03-24T20:52:42.673Z,98374.31
2023-03-24T20:55:11.685Z,98369.78
2023-03-24T20:57:38.749Z,98363.38
2023-03-24T21:00:13.916Z,98365.59
2023-03-24T21:02:43.508Z,98365.59
2023-03-24T21:05:10.996Z,98356.69
2023-03-24T21:07:38.719Z,98355.25
2023-03-24T21:10:06.981Z,98360.41
2023-03-24T21:12:34.741Z,98361.28
2023-03-24T21:15:01.698Z,98364.00
2023-03-24T21:17:32.594Z,98365.66
2023-03-24T21:20:07.002Z,98361.91
2023-03-24T21:22:47.622Z,98349.88
2023-03-24T21:25:16.059Z,98354.47
2023-03-24T21:27:43.022Z,98349.31
2023-03-24T21:30:11.713Z,98352.19
2023-03-24T21:32:38.923Z,98350.34
2023-03-24T21:35:07.118Z,98354.94
2023-03-24T21:37:34.317Z,98354.94
2023-03-24T21:40:01.322Z,98352.25
2023-03-24T21:42:31.027Z,98344.75
2023-03-24T21:44:58.004Z,98343.94
2023-03-24T21:47:25.450Z,98345.81
2023-03-24T21:49:59.161Z,98350.59
2023-03-24T21:52:29.066Z,98365.59
2023-03-24T21:55:01.117Z,98368.69
2023-03-24T21:57:28.197Z,98366.59
2023-03-24T21:59:55.299Z,98370.38
2023-03-24T22:02:24.648Z,98373.25
2023-03-24T22:04:51.656Z,98376.56
2023-03-24T22:07:18.859Z,98380.50
2023-03-24T22:09:46.028Z,98375.97
2023-03-24T22:12:13.125Z,98384.28
2023-03-24T22:14:40.181Z,98387.78
2023-03-24T22:17:08.383Z,98394.22
2023-03-24T22:19:35.294Z,98403.63
2023-03-24T22:22:02.430Z,98399.19
2023-03-24T22:24:30.430Z,98406.69
2023-03-24T22:26:59.159Z,98402.72
2023-03-24T22:29:26.726Z,98413.94
2023-03-24T22:31:53.817Z,98409.16
2023-03-24T22:34:21.754Z,98411.88
2023-03-24T22:36:48.902Z,98419.16
2023-03-24T22:39:15.847Z,98414.81
2023-03-24T22:41:44.129Z,98419.13
2023-03-24T22:44:11.577Z,98421.84
2023-03-24T22:46:38.794Z,98415.19
2023-03-24T22:49:06.389Z,98408.97
2023-03-24T22:51:33.477Z,98414.13
2023-03-24T22:54:00.829Z,98423.72
2023-03-24T22:56:27.912Z,98423.91
2023-03-24T22:58:54.841Z,98427.63
2023-03-24T23:01:21.757Z,98425.56
2023-03-24T23:03:49.189Z,98426.59
2023-03-24T23:06:16.185Z,98433.88
2023-03-24T23:08:43.620Z,98446.81
2023-03-24T23:11:11.765Z,98444.72
2023-03-24T23:13:39.228Z,98445.13
2023-03-24T23:16:07.154Z,98463.38
2023-03-24T23:18:34.282Z,98460.47
2023-03-24T23:21:13.677Z,98455.06
2023-03-24T23:23:42.003Z,98454.44
2023-03-24T23:26:26.216Z,98448.66
2023-03-24T23:28:53.798Z,98458.81
2023-03-24T23:31:25.366Z,98453.84
2023-03-24T23:33:58.612Z,98462.56
2023-03-24T23:36:28.620Z,98457.16
2023-03-24T23:38:56.026Z,98465.03
2023-03-24T23:41:23.604Z,98467.34
2023-03-24T23:43:52.483Z,98457.78
2023-03-24T23:46:20.670Z,98462.13
2023-03-24T23:48:47.670Z,98458.38
2023-03-24T23:51:14.611Z,98463.38
2023-03-24T23:53:41.918Z,98454.25
2023-03-24T23:56:12.295Z,98467.78
2023-03-24T23:58:42.694Z,98465.09
